sensor_id;sensor_type;location;lat;lon;timestamp;temperature;humidity
13328;DHT22;6733;51.044;3.746;2024-02-14T00:01:56;10.30;86.80
13328;DHT22;6733;51.044;3.746;2024-02-14T00:04:22;10.30;86.60
13328;DHT22;6733;51.044;3.746;2024-02-14T00:06:48;10.30;86.60
13328;DHT22;6733;51.044;3.746;2024-02-14T00:09:15;10.30;86.50
13328;DHT22;6733;51.044;3.746;2024-02-14T00:11:41;10.40;86.40
13328;DHT22;6733;51.044;3.746;2024-02-14T00:14:08;10.40;86.40
13328;DHT22;6733;51.044;3.746;2024-02-14T00:16:34;10.40;86.20
13328;DHT22;6733;51.044;3.746;2024-02-14T00:19:00;10.50;86.20
13328;DHT22;6733;51.044;3.746;2024-02-14T00:21:26;10.50;86.00
13328;DHT22;6733;51.044;3.746;2024-02-14T00:23:52;10.50;86.10
13328;DHT22;6733;51.044;3.746;2024-02-14T00:26:18;10.50;85.90
13328;DHT22;6733;51.044;3.746;2024-02-14T00:28:44;10.50;85.90
13328;DHT22;6733;51.044;3.746;2024-02-14T00:31:11;10.50;85.90
13328;DHT22;6733;51.044;3.746;2024-02-14T00:33:37;10.50;86.00
13328;DHT22;6733;51.044;3.746;2024-02-14T00:36:03;10.50;86.20
13328;DHT22;6733;51.044;3.746;2024-02-14T00:38:29;10.50;86.30
13328;DHT22;6733;51.044;3.746;2024-02-14T00:40:55;10.50;86.40
13328;DHT22;6733;51.044;3.746;2024-02-14T00:43:22;10.50;86.30
13328;DHT22;6733;51.044;3.746;2024-02-14T00:45:48;10.50;86.30
13328;DHT22;6733;51.044;3.746;2024-02-14T00:48:14;10.50;86.20
13328;DHT22;6733;51.044;3.746;2024-02-14T00:50:40;10.60;86.20
13328;DHT22;6733;51.044;3.746;2024-02-14T00:53:06;10.50;86.30
13328;DHT22;6733;51.044;3.746;2024-02-14T00:55:32;10.50;86.30
13328;DHT22;6733;51.044;3.746;2024-02-14T00:57:59;10.50;86.50
13328;DHT22;6733;51.044;3.746;2024-02-14T01:00:25;10.50;86.60
13328;DHT22;6733;51.044;3.746;2024-02-14T01:02:51;10.50;86.60
13328;DHT22;6733;51.044;3.746;2024-02-14T01:05:17;10.50;86.60
13328;DHT22;6733;51.044;3.746;2024-02-14T01:07:44;10.50;86.60
13328;DHT22;6733;51.044;3.746;2024-02-14T01:10:12;10.40;86.90
13328;DHT22;6733;51.044;3.746;2024-02-14T01:12:38;10.40;87.10
13328;DHT22;6733;51.044;3.746;2024-02-14T01:15:06;10.40;87.30
13328;DHT22;6733;51.044;3.746;2024-02-14T01:17:32;10.40;87.30
13328;DHT22;6733;51.044;3.746;2024-02-14T01:20:02;10.50;87.20
13328;DHT22;6733;51.044;3.746;2024-02-14T01:22:29;10.50;87.30
13328;DHT22;6733;51.044;3.746;2024-02-14T01:24:55;10.50;87.30
13328;DHT22;6733;51.044;3.746;2024-02-14T01:27:21;10.50;87.40
13328;DHT22;6733;51.044;3.746;2024-02-14T01:29:48;10.50;87.80
13328;DHT22;6733;51.044;3.746;2024-02-14T01:32:15;10.50;87.90
13328;DHT22;6733;51.044;3.746;2024-02-14T01:34:41;10.50;88.10
13328;DHT22;6733;51.044;3.746;2024-02-14T01:37:10;10.50;88.00
13328;DHT22;6733;51.044;3.746;2024-02-14T01:39:36;10.50;88.00
13328;DHT22;6733;51.044;3.746;2024-02-14T01:42:02;10.50;88.10
13328;DHT22;6733;51.044;3.746;2024-02-14T01:44:33;10.50;88.10
13328;DHT22;6733;51.044;3.746;2024-02-14T01:47:00;10.50;88.20
13328;DHT22;6733;51.044;3.746;2024-02-14T01:49:27;10.60;88.00
13328;DHT22;6733;51.044;3.746;2024-02-14T01:51:57;10.60;87.80
13328;DHT22;6733;51.044;3.746;2024-02-14T01:54:25;10.60;87.70
13328;DHT22;6733;51.044;3.746;2024-02-14T01:56:53;10.70;87.70
13328;DHT22;6733;51.044;3.746;2024-02-14T01:59:20;10.70;87.50
13328;DHT22;6733;51.044;3.746;2024-02-14T02:01:46;10.70;87.50
13328;DHT22;6733;51.044;3.746;2024-02-14T02:04:13;10.70;87.50
13328;DHT22;6733;51.044;3.746;2024-02-14T02:06:40;10.80;87.40
13328;DHT22;6733;51.044;3.746;2024-02-14T02:09:07;10.70;87.40
13328;DHT22;6733;51.044;3.746;2024-02-14T02:11:45;10.70;87.50
13328;DHT22;6733;51.044;3.746;2024-02-14T02:14:11;10.80;87.50
13328;DHT22;6733;51.044;3.746;2024-02-14T02:16:38;10.80;87.70
13328;DHT22;6733;51.044;3.746;2024-02-14T02:19:04;10.80;87.90
13328;DHT22;6733;51.044;3.746;2024-02-14T02:21:34;10.80;88.20
13328;DHT22;6733;51.044;3.746;2024-02-14T02:24:01;10.90;88.20
13328;DHT22;6733;51.044;3.746;2024-02-14T02:26:27;10.90;88.20
13328;DHT22;6733;51.044;3.746;2024-02-14T02:28:54;10.90;88.20
13328;DHT22;6733;51.044;3.746;2024-02-14T02:31:20;10.90;88.30
13328;DHT22;6733;51.044;3.746;2024-02-14T02:33:47;10.80;88.60
13328;DHT22;6733;51.044;3.746;2024-02-14T02:36:38;10.80;88.70
13328;DHT22;6733;51.044;3.746;2024-02-14T02:39:30;10.80;88.80
13328;DHT22;6733;51.044;3.746;2024-02-14T02:42:21;10.90;88.60
13328;DHT22;6733;51.044;3.746;2024-02-14T02:45:12;10.90;88.50
13328;DHT22;6733;51.044;3.746;2024-02-14T02:48:03;10.90;88.40
13328;DHT22;6733;51.044;3.746;2024-02-14T02:50:54;10.90;88.30
13328;DHT22;6733;51.044;3.746;2024-02-14T02:53:45;10.90;88.30
13328;DHT22;6733;51.044;3.746;2024-02-14T02:56:36;11.00;88.10
13328;DHT22;6733;51.044;3.746;2024-02-14T02:59:30;10.90;88.10
13328;DHT22;6733;51.044;3.746;2024-02-14T03:01:57;10.90;88.20
13328;DHT22;6733;51.044;3.746;2024-02-14T03:04:24;11.00;88.20
13328;DHT22;6733;51.044;3.746;2024-02-14T03:06:50;10.90;88.40
13328;DHT22;6733;51.044;3.746;2024-02-14T03:09:16;10.90;88.50
13328;DHT22;6733;51.044;3.746;2024-02-14T03:11:47;10.90;88.70
13328;DHT22;6733;51.044;3.746;2024-02-14T03:14:16;10.90;88.70
13328;DHT22;6733;51.044;3.746;2024-02-14T03:16:42;11.00;88.70
13328;DHT22;6733;51.044;3.746;2024-02-14T03:19:08;11.00;88.80
13328;DHT22;6733;51.044;3.746;2024-02-14T03:21:34;11.00;88.80
13328;DHT22;6733;51.044;3.746;2024-02-14T03:24:02;11.00;88.80
13328;DHT22;6733;51.044;3.746;2024-02-14T03:26:31;11.00;88.90
13328;DHT22;6733;51.044;3.746;2024-02-14T03:29:01;11.00;89.10
13328;DHT22;6733;51.044;3.746;2024-02-14T03:31:28;11.00;89.20
13328;DHT22;6733;51.044;3.746;2024-02-14T03:33:54;11.00;89.20
13328;DHT22;6733;51.044;3.746;2024-02-14T03:36:20;11.10;89.20
13328;DHT22;6733;51.044;3.746;2024-02-14T03:38:46;11.00;89.10
13328;DHT22;6733;51.044;3.746;2024-02-14T03:41:12;11.00;89.00
13328;DHT22;6733;51.044;3.746;2024-02-14T03:43:41;11.00;89.10
13328;DHT22;6733;51.044;3.746;2024-02-14T03:46:08;11.00;89.10
13328;DHT22;6733;51.044;3.746;2024-02-14T03:48:34;11.00;89.40
13328;DHT22;6733;51.044;3.746;2024-02-14T03:51:00;10.90;89.70
13328;DHT22;6733;51.044;3.746;2024-02-14T03:53:27;11.00;89.70
13328;DHT22;6733;51.044;3.746;2024-02-14T03:55:53;11.00;89.80
13328;DHT22;6733;51.044;3.746;2024-02-14T03:58:19;11.00;89.90
13328;DHT22;6733;51.044;3.746;2024-02-14T04:00:52;11.00;89.80
13328;DHT22;6733;51.044;3.746;2024-02-14T04:03:18;11.00;89.90
13328;DHT22;6733;51.044;3.746;2024-02-14T04:05:45;11.00;89.90
13328;DHT22;6733;51.044;3.746;2024-02-14T04:08:11;11.00;89.80
13328;DHT22;6733;51.044;3.746;2024-02-14T04:10:38;11.00;89.80
13328;DHT22;6733;51.044;3.746;2024-02-14T04:13:04;11.00;89.90
13328;DHT22;6733;51.044;3.746;2024-02-14T04:15:31;11.00;89.90
13328;DHT22;6733;51.044;3.746;2024-02-14T04:17:58;11.00;89.90
13328;DHT22;6733;51.044;3.746;2024-02-14T04:20:25;11.00;89.80
13328;DHT22;6733;51.044;3.746;2024-02-14T04:22:51;11.10;89.80
13328;DHT22;6733;51.044;3.746;2024-02-14T04:25:18;11.10;89.80
13328;DHT22;6733;51.044;3.746;2024-02-14T04:27:44;11.10;89.80
13328;DHT22;6733;51.044;3.746;2024-02-14T04:30:11;11.10;89.80
13328;DHT22;6733;51.044;3.746;2024-02-14T04:32:37;11.20;89.60
13328;DHT22;6733;51.044;3.746;2024-02-14T04:35:03;11.20;89.50
13328;DHT22;6733;51.044;3.746;2024-02-14T04:37:29;11.20;89.40
13328;DHT22;6733;51.044;3.746;2024-02-14T04:39:56;11.20;89.40
13328;DHT22;6733;51.044;3.746;2024-02-14T04:42:22;11.20;89.40
13328;DHT22;6733;51.044;3.746;2024-02-14T04:44:48;11.20;89.40
13328;DHT22;6733;51.044;3.746;2024-02-14T04:47:15;11.20;89.40
13328;DHT22;6733;51.044;3.746;2024-02-14T04:49:41;11.20;89.40
13328;DHT22;6733;51.044;3.746;2024-02-14T04:52:07;11.20;89.40
13328;DHT22;6733;51.044;3.746;2024-02-14T04:54:34;11.20;89.30
13328;DHT22;6733;51.044;3.746;2024-02-14T04:57:00;11.20;89.20
13328;DHT22;6733;51.044;3.746;2024-02-14T04:59:26;11.30;89.00
13328;DHT22;6733;51.044;3.746;2024-02-14T05:01:52;11.30;88.90
13328;DHT22;6733;51.044;3.746;2024-02-14T05:04:19;11.30;89.00
13328;DHT22;6733;51.044;3.746;2024-02-14T05:06:46;11.30;88.80
13328;DHT22;6733;51.044;3.746;2024-02-14T05:09:12;11.30;88.90
13328;DHT22;6733;51.044;3.746;2024-02-14T05:11:41;11.20;88.90
13328;DHT22;6733;51.044;3.746;2024-02-14T05:14:07;11.30;88.90
13328;DHT22;6733;51.044;3.746;2024-02-14T05:16:33;11.30;88.90
13328;DHT22;6733;51.044;3.746;2024-02-14T05:18:59;11.40;88.70
13328;DHT22;6733;51.044;3.746;2024-02-14T05:21:26;11.30;88.70
13328;DHT22;6733;51.044;3.746;2024-02-14T05:23:53;11.30;88.70
13328;DHT22;6733;51.044;3.746;2024-02-14T05:26:19;11.30;88.70
13328;DHT22;6733;51.044;3.746;2024-02-14T05:28:45;11.30;88.70
13328;DHT22;6733;51.044;3.746;2024-02-14T05:31:12;11.30;88.60
13328;DHT22;6733;51.044;3.746;2024-02-14T05:33:38;11.30;88.60
13328;DHT22;6733;51.044;3.746;2024-02-14T05:36:05;11.30;88.60
13328;DHT22;6733;51.044;3.746;2024-02-14T05:38:31;11.30;88.50
13328;DHT22;6733;51.044;3.746;2024-02-14T05:40:59;11.30;88.50
13328;DHT22;6733;51.044;3.746;2024-02-14T05:43:26;11.30;88.50
13328;DHT22;6733;51.044;3.746;2024-02-14T05:45:52;11.40;88.50
13328;DHT22;6733;51.044;3.746;2024-02-14T05:48:19;11.30;88.50
13328;DHT22;6733;51.044;3.746;2024-02-14T05:50:46;11.30;88.60
13328;DHT22;6733;51.044;3.746;2024-02-14T05:53:12;11.30;88.50
13328;DHT22;6733;51.044;3.746;2024-02-14T05:55:38;11.30;88.60
13328;DHT22;6733;51.044;3.746;2024-02-14T05:58:04;11.30;88.70
13328;DHT22;6733;51.044;3.746;2024-02-14T06:00:31;11.40;88.70
13328;DHT22;6733;51.044;3.746;2024-02-14T06:02:57;11.30;88.90
13328;DHT22;6733;51.044;3.746;2024-02-14T06:05:23;11.30;89.30
13328;DHT22;6733;51.044;3.746;2024-02-14T06:07:49;11.40;89.40
13328;DHT22;6733;51.044;3.746;2024-02-14T06:10:17;11.40;89.40
13328;DHT22;6733;51.044;3.746;2024-02-14T06:12:44;11.40;89.40
13328;DHT22;6733;51.044;3.746;2024-02-14T06:15:10;11.40;89.30
13328;DHT22;6733;51.044;3.746;2024-02-14T06:17:36;11.50;89.10
13328;DHT22;6733;51.044;3.746;2024-02-14T06:20:02;11.50;89.00
13328;DHT22;6733;51.044;3.746;2024-02-14T06:22:33;11.50;88.90
13328;DHT22;6733;51.044;3.746;2024-02-14T06:25:00;11.50;88.70
13328;DHT22;6733;51.044;3.746;2024-02-14T06:27:26;11.50;88.80
13328;DHT22;6733;51.044;3.746;2024-02-14T06:29:53;11.60;88.60
13328;DHT22;6733;51.044;3.746;2024-02-14T06:32:20;11.50;88.60
13328;DHT22;6733;51.044;3.746;2024-02-14T06:34:47;11.60;88.50
13328;DHT22;6733;51.044;3.746;2024-02-14T06:37:13;11.60;88.50
13328;DHT22;6733;51.044;3.746;2024-02-14T06:39:39;11.60;88.40
13328;DHT22;6733;51.044;3.746;2024-02-14T06:42:05;11.60;88.40
13328;DHT22;6733;51.044;3.746;2024-02-14T06:44:32;11.60;88.30
13328;DHT22;6733;51.044;3.746;2024-02-14T06:46:58;11.70;88.30
13328;DHT22;6733;51.044;3.746;2024-02-14T06:49:24;11.60;88.30
13328;DHT22;6733;51.044;3.746;2024-02-14T06:51:50;11.60;88.30
13328;DHT22;6733;51.044;3.746;2024-02-14T06:54:16;11.70;88.10
13328;DHT22;6733;51.044;3.746;2024-02-14T06:56:45;11.70;88.00
13328;DHT22;6733;51.044;3.746;2024-02-14T06:59:11;11.70;87.90
13328;DHT22;6733;51.044;3.746;2024-02-14T07:01:37;11.70;87.80
13328;DHT22;6733;51.044;3.746;2024-02-14T07:04:04;11.80;88.00
13328;DHT22;6733;51.044;3.746;2024-02-14T07:06:31;11.80;88.20
13328;DHT22;6733;51.044;3.746;2024-02-14T07:08:57;11.80;88.30
13328;DHT22;6733;51.044;3.746;2024-02-14T07:11:23;11.90;88.50
13328;DHT22;6733;51.044;3.746;2024-02-14T07:13:50;11.80;88.70
13328;DHT22;6733;51.044;3.746;2024-02-14T07:16:16;11.80;88.60
13328;DHT22;6733;51.044;3.746;2024-02-14T07:18:43;11.80;88.50
13328;DHT22;6733;51.044;3.746;2024-02-14T07:21:09;11.90;88.40
13328;DHT22;6733;51.044;3.746;2024-02-14T07:23:36;11.80;88.40
13328;DHT22;6733;51.044;3.746;2024-02-14T07:26:02;11.80;88.40
13328;DHT22;6733;51.044;3.746;2024-02-14T07:28:28;11.80;88.40
13328;DHT22;6733;51.044;3.746;2024-02-14T07:30:54;11.90;88.40
13328;DHT22;6733;51.044;3.746;2024-02-14T07:33:21;11.90;88.20
13328;DHT22;6733;51.044;3.746;2024-02-14T07:35:48;11.90;88.20
13328;DHT22;6733;51.044;3.746;2024-02-14T07:38:14;11.90;88.10
13328;DHT22;6733;51.044;3.746;2024-02-14T07:40:40;11.90;88.10
13328;DHT22;6733;51.044;3.746;2024-02-14T07:43:07;11.90;88.20
13328;DHT22;6733;51.044;3.746;2024-02-14T07:45:34;11.90;88.30
13328;DHT22;6733;51.044;3.746;2024-02-14T07:48:00;12.00;88.30
13328;DHT22;6733;51.044;3.746;2024-02-14T07:50:26;12.00;88.30
13328;DHT22;6733;51.044;3.746;2024-02-14T07:52:54;12.00;88.30
13328;DHT22;6733;51.044;3.746;2024-02-14T07:55:20;12.00;88.40
13328;DHT22;6733;51.044;3.746;2024-02-14T07:57:46;12.00;88.40
13328;DHT22;6733;51.044;3.746;2024-02-14T08:00:13;11.90;88.50
13328;DHT22;6733;51.044;3.746;2024-02-14T08:02:44;12.00;88.70
13328;DHT22;6733;51.044;3.746;2024-02-14T08:05:11;12.00;88.80
13328;DHT22;6733;51.044;3.746;2024-02-14T08:07:37;12.00;88.90
13328;DHT22;6733;51.044;3.746;2024-02-14T08:10:03;12.00;89.00
13328;DHT22;6733;51.044;3.746;2024-02-14T08:12:30;12.00;89.00
13328;DHT22;6733;51.044;3.746;2024-02-14T08:14:57;12.00;88.90
13328;DHT22;6733;51.044;3.746;2024-02-14T08:17:23;12.10;88.90
13328;DHT22;6733;51.044;3.746;2024-02-14T08:19:49;12.10;88.90
13328;DHT22;6733;51.044;3.746;2024-02-14T08:22:15;12.10;88.80
13328;DHT22;6733;51.044;3.746;2024-02-14T08:24:41;12.10;88.90
13328;DHT22;6733;51.044;3.746;2024-02-14T08:27:08;12.20;88.70
13328;DHT22;6733;51.044;3.746;2024-02-14T08:29:34;12.20;88.60
13328;DHT22;6733;51.044;3.746;2024-02-14T08:32:00;12.20;88.40
13328;DHT22;6733;51.044;3.746;2024-02-14T08:34:26;12.20;88.40
13328;DHT22;6733;51.044;3.746;2024-02-14T08:36:52;12.20;88.10
13328;DHT22;6733;51.044;3.746;2024-02-14T08:39:19;12.30;88.10
13328;DHT22;6733;51.044;3.746;2024-02-14T08:41:45;12.30;87.90
13328;DHT22;6733;51.044;3.746;2024-02-14T08:44:15;12.20;88.00
13328;DHT22;6733;51.044;3.746;2024-02-14T08:46:41;12.20;88.20
13328;DHT22;6733;51.044;3.746;2024-02-14T08:49:08;12.20;88.10
13328;DHT22;6733;51.044;3.746;2024-02-14T08:51:35;12.20;88.20
13328;DHT22;6733;51.044;3.746;2024-02-14T08:54:03;12.30;88.20
13328;DHT22;6733;51.044;3.746;2024-02-14T08:56:32;12.20;88.10
13328;DHT22;6733;51.044;3.746;2024-02-14T08:59:00;12.30;88.20
13328;DHT22;6733;51.044;3.746;2024-02-14T09:01:31;12.30;88.20
13328;DHT22;6733;51.044;3.746;2024-02-14T09:03:57;12.30;88.10
13328;DHT22;6733;51.044;3.746;2024-02-14T09:06:25;12.30;88.10
13328;DHT22;6733;51.044;3.746;2024-02-14T09:08:52;12.30;88.00
13328;DHT22;6733;51.044;3.746;2024-02-14T09:11:19;12.30;88.20
13328;DHT22;6733;51.044;3.746;2024-02-14T09:13:46;12.30;88.30
13328;DHT22;6733;51.044;3.746;2024-02-14T09:16:19;12.30;88.60
13328;DHT22;6733;51.044;3.746;2024-02-14T09:18:47;12.30;88.80
13328;DHT22;6733;51.044;3.746;2024-02-14T09:21:13;12.30;88.80
13328;DHT22;6733;51.044;3.746;2024-02-14T09:23:41;12.30;88.80
13328;DHT22;6733;51.044;3.746;2024-02-14T09:26:08;12.40;88.70
13328;DHT22;6733;51.044;3.746;2024-02-14T09:28:34;12.40;88.70
13328;DHT22;6733;51.044;3.746;2024-02-14T09:31:01;12.40;88.60
13328;DHT22;6733;51.044;3.746;2024-02-14T09:33:29;12.50;88.60
13328;DHT22;6733;51.044;3.746;2024-02-14T09:35:56;12.50;88.50
13328;DHT22;6733;51.044;3.746;2024-02-14T09:38:22;12.40;88.90
13328;DHT22;6733;51.044;3.746;2024-02-14T09:40:53;12.40;88.90
13328;DHT22;6733;51.044;3.746;2024-02-14T09:43:34;12.40;89.10
13328;DHT22;6733;51.044;3.746;2024-02-14T09:46:02;12.40;89.30
13328;DHT22;6733;51.044;3.746;2024-02-14T09:48:30;12.40;89.70
13328;DHT22;6733;51.044;3.746;2024-02-14T09:50:57;12.50;89.60
13328;DHT22;6733;51.044;3.746;2024-02-14T09:53:23;12.50;89.60
13328;DHT22;6733;51.044;3.746;2024-02-14T09:55:50;12.50;89.70
13328;DHT22;6733;51.044;3.746;2024-02-14T09:58:17;12.50;89.80
13328;DHT22;6733;51.044;3.746;2024-02-14T10:00:43;12.50;89.80
13328;DHT22;6733;51.044;3.746;2024-02-14T10:03:09;12.60;89.70
13328;DHT22;6733;51.044;3.746;2024-02-14T10:05:36;12.50;89.90
13328;DHT22;6733;51.044;3.746;2024-02-14T10:08:03;12.60;90.10
13328;DHT22;6733;51.044;3.746;2024-02-14T10:10:32;12.70;90.10
13328;DHT22;6733;51.044;3.746;2024-02-14T10:13:04;12.70;89.90
13328;DHT22;6733;51.044;3.746;2024-02-14T10:15:31;12.80;90.20
13328;DHT22;6733;51.044;3.746;2024-02-14T10:18:00;12.70;90.00
13328;DHT22;6733;51.044;3.746;2024-02-14T10:20:26;12.70;90.20
13328;DHT22;6733;51.044;3.746;2024-02-14T10:23:00;12.60;90.40
13328;DHT22;6733;51.044;3.746;2024-02-14T10:25:28;12.60;90.70
13328;DHT22;6733;51.044;3.746;2024-02-14T10:27:54;12.70;90.60
13328;DHT22;6733;51.044;3.746;2024-02-14T10:30:20;12.70;90.70
13328;DHT22;6733;51.044;3.746;2024-02-14T10:32:47;12.70;90.90
13328;DHT22;6733;51.044;3.746;2024-02-14T10:35:15;12.70;91.00
13328;DHT22;6733;51.044;3.746;2024-02-14T10:37:41;12.80;90.80
13328;DHT22;6733;51.044;3.746;2024-02-14T10:40:08;12.80;90.60
13328;DHT22;6733;51.044;3.746;2024-02-14T10:42:37;12.80;90.60
13328;DHT22;6733;51.044;3.746;2024-02-14T10:45:04;12.80;90.60
13328;DHT22;6733;51.044;3.746;2024-02-14T10:47:36;12.80;90.50
13328;DHT22;6733;51.044;3.746;2024-02-14T10:50:04;12.90;90.40
13328;DHT22;6733;51.044;3.746;2024-02-14T10:52:34;12.90;90.30
13328;DHT22;6733;51.044;3.746;2024-02-14T10:55:03;12.90;90.10
13328;DHT22;6733;51.044;3.746;2024-02-14T10:57:30;12.90;90.30
13328;DHT22;6733;51.044;3.746;2024-02-14T11:00:09;12.90;90.20
13328;DHT22;6733;51.044;3.746;2024-02-14T11:02:36;12.90;90.40
13328;DHT22;6733;51.044;3.746;2024-02-14T11:05:03;13.00;90.20
13328;DHT22;6733;51.044;3.746;2024-02-14T11:07:31;13.00;90.10
13328;DHT22;6733;51.044;3.746;2024-02-14T11:10:17;13.00;90.00
13328;DHT22;6733;51.044;3.746;2024-02-14T11:12:43;13.10;90.00
13328;DHT22;6733;51.044;3.746;2024-02-14T11:17:45;13.10;89.80
13328;DHT22;6733;51.044;3.746;2024-02-14T11:20:16;13.20;89.70
13328;DHT22;6733;51.044;3.746;2024-02-14T11:23:02;13.20;89.50
13328;DHT22;6733;51.044;3.746;2024-02-14T11:25:35;13.20;89.50
13328;DHT22;6733;51.044;3.746;2024-02-14T11:28:15;13.20;89.70
13328;DHT22;6733;51.044;3.746;2024-02-14T11:30:43;13.20;89.60
13328;DHT22;6733;51.044;3.746;2024-02-14T11:33:20;13.30;89.50
13328;DHT22;6733;51.044;3.746;2024-02-14T11:35:48;13.30;89.20
13328;DHT22;6733;51.044;3.746;2024-02-14T11:38:22;13.40;89.20
13328;DHT22;6733;51.044;3.746;2024-02-14T11:40:49;13.40;88.70
13328;DHT22;6733;51.044;3.746;2024-02-14T11:43:19;13.40;88.90
13328;DHT22;6733;51.044;3.746;2024-02-14T11:45:47;13.40;88.80
13328;DHT22;6733;51.044;3.746;2024-02-14T11:48:16;13.50;88.70
13328;DHT22;6733;51.044;3.746;2024-02-14T11:50:44;13.50;88.80
13328;DHT22;6733;51.044;3.746;2024-02-14T11:53:11;13.60;89.00
13328;DHT22;6733;51.044;3.746;2024-02-14T11:55:38;13.60;89.00
13328;DHT22;6733;51.044;3.746;2024-02-14T11:58:12;13.60;88.90
13328;DHT22;6733;51.044;3.746;2024-02-14T12:00:43;13.60;88.80
13328;DHT22;6733;51.044;3.746;2024-02-14T12:03:19;13.50;88.90
13328;DHT22;6733;51.044;3.746;2024-02-14T12:05:49;13.60;88.80
13328;DHT22;6733;51.044;3.746;2024-02-14T12:08:16;13.60;88.90
13328;DHT22;6733;51.044;3.746;2024-02-14T12:10:45;13.60;88.90
13328;DHT22;6733;51.044;3.746;2024-02-14T12:13:17;13.60;88.90
13328;DHT22;6733;51.044;3.746;2024-02-14T12:15:47;13.60;89.00
13328;DHT22;6733;51.044;3.746;2024-02-14T12:18:16;13.50;89.30
13328;DHT22;6733;51.044;3.746;2024-02-14T12:20:44;13.50;89.40
13328;DHT22;6733;51.044;3.746;2024-02-14T12:23:17;13.60;89.40
13328;DHT22;6733;51.044;3.746;2024-02-14T12:25:45;13.60;89.20
13328;DHT22;6733;51.044;3.746;2024-02-14T12:28:18;13.70;89.20
13328;DHT22;6733;51.044;3.746;2024-02-14T12:30:50;13.70;89.10
13328;DHT22;6733;51.044;3.746;2024-02-14T12:33:26;13.70;89.00
13328;DHT22;6733;51.044;3.746;2024-02-14T12:35:54;13.60;88.90
13328;DHT22;6733;51.044;3.746;2024-02-14T12:38:24;13.60;89.20
13328;DHT22;6733;51.044;3.746;2024-02-14T12:40:51;13.70;89.30
13328;DHT22;6733;51.044;3.746;2024-02-14T12:43:20;13.70;89.40
13328;DHT22;6733;51.044;3.746;2024-02-14T12:45:47;13.60;89.70
13328;DHT22;6733;51.044;3.746;2024-02-14T12:48:21;13.60;90.10
13328;DHT22;6733;51.044;3.746;2024-02-14T12:50:47;13.50;90.40
13328;DHT22;6733;51.044;3.746;2024-02-14T12:53:16;13.60;90.50
13328;DHT22;6733;51.044;3.746;2024-02-14T12:55:42;13.60;90.50
13328;DHT22;6733;51.044;3.746;2024-02-14T12:58:08;13.60;90.50
13328;DHT22;6733;51.044;3.746;2024-02-14T13:00:35;13.50;90.70
13328;DHT22;6733;51.044;3.746;2024-02-14T13:03:02;13.50;90.70
13328;DHT22;6733;51.044;3.746;2024-02-14T13:05:28;13.50;91.10
13328;DHT22;6733;51.044;3.746;2024-02-14T13:07:54;13.60;91.00
13328;DHT22;6733;51.044;3.746;2024-02-14T13:10:20;13.60;91.00
13328;DHT22;6733;51.044;3.746;2024-02-14T13:12:46;13.60;91.00
13328;DHT22;6733;51.044;3.746;2024-02-14T13:15:12;13.60;90.80
13328;DHT22;6733;51.044;3.746;2024-02-14T13:17:39;13.70;90.60
13328;DHT22;6733;51.044;3.746;2024-02-14T13:20:05;13.60;90.90
13328;DHT22;6733;51.044;3.746;2024-02-14T13:22:32;13.60;91.00
13328;DHT22;6733;51.044;3.746;2024-02-14T13:24:58;13.50;91.30
13328;DHT22;6733;51.044;3.746;2024-02-14T13:27:26;13.60;91.30
13328;DHT22;6733;51.044;3.746;2024-02-14T13:29:52;13.60;91.30
13328;DHT22;6733;51.044;3.746;2024-02-14T13:32:18;13.60;91.10
13328;DHT22;6733;51.044;3.746;2024-02-14T13:34:45;13.60;91.30
13328;DHT22;6733;51.044;3.746;2024-02-14T13:37:11;13.50;91.40
13328;DHT22;6733;51.044;3.746;2024-02-14T13:39:37;13.50;91.60
13328;DHT22;6733;51.044;3.746;2024-02-14T13:42:03;13.50;91.60
13328;DHT22;6733;51.044;3.746;2024-02-14T13:44:30;13.50;91.70
13328;DHT22;6733;51.044;3.746;2024-02-14T13:46:56;13.50;91.60
13328;DHT22;6733;51.044;3.746;2024-02-14T13:49:22;13.50;91.70
13328;DHT22;6733;51.044;3.746;2024-02-14T13:51:50;13.60;91.60
13328;DHT22;6733;51.044;3.746;2024-02-14T13:54:18;13.60;91.60
13328;DHT22;6733;51.044;3.746;2024-02-14T13:56:44;13.60;91.70
13328;DHT22;6733;51.044;3.746;2024-02-14T13:59:11;13.60;91.50
13328;DHT22;6733;51.044;3.746;2024-02-14T14:01:37;13.60;91.50
13328;DHT22;6733;51.044;3.746;2024-02-14T14:04:04;13.70;91.50
13328;DHT22;6733;51.044;3.746;2024-02-14T14:06:31;13.70;91.40
13328;DHT22;6733;51.044;3.746;2024-02-14T14:08:57;13.70;91.30
13328;DHT22;6733;51.044;3.746;2024-02-14T14:11:23;13.80;91.30
13328;DHT22;6733;51.044;3.746;2024-02-14T14:13:49;13.80;91.20
13328;DHT22;6733;51.044;3.746;2024-02-14T14:16:15;13.90;90.90
13328;DHT22;6733;51.044;3.746;2024-02-14T14:18:41;14.00;90.80
13328;DHT22;6733;51.044;3.746;2024-02-14T14:21:08;14.00;90.60
13328;DHT22;6733;51.044;3.746;2024-02-14T14:23:34;14.10;90.40
13328;DHT22;6733;51.044;3.746;2024-02-14T14:26:00;14.10;90.10
13328;DHT22;6733;51.044;3.746;2024-02-14T14:28:27;14.10;89.90
13328;DHT22;6733;51.044;3.746;2024-02-14T14:30:54;14.10;90.00
13328;DHT22;6733;51.044;3.746;2024-02-14T14:33:21;14.10;89.90
13328;DHT22;6733;51.044;3.746;2024-02-14T14:35:48;14.20;89.90
13328;DHT22;6733;51.044;3.746;2024-02-14T14:38:20;14.10;89.80
13328;DHT22;6733;51.044;3.746;2024-02-14T14:40:47;14.20;89.90
13328;DHT22;6733;51.044;3.746;2024-02-14T14:43:14;14.20;89.80
13328;DHT22;6733;51.044;3.746;2024-02-14T14:45:40;14.20;89.60
13328;DHT22;6733;51.044;3.746;2024-02-14T14:48:08;14.30;89.50
13328;DHT22;6733;51.044;3.746;2024-02-14T14:50:37;14.30;89.40
13328;DHT22;6733;51.044;3.746;2024-02-14T14:53:04;14.30;89.50
13328;DHT22;6733;51.044;3.746;2024-02-14T14:55:52;14.30;89.30
13328;DHT22;6733;51.044;3.746;2024-02-14T14:58:19;14.30;89.20
13328;DHT22;6733;51.044;3.746;2024-02-14T15:00:45;14.30;89.20
13328;DHT22;6733;51.044;3.746;2024-02-14T15:03:11;14.40;89.30
13328;DHT22;6733;51.044;3.746;2024-02-14T15:05:38;14.40;89.20
13328;DHT22;6733;51.044;3.746;2024-02-14T15:08:07;14.50;89.00
13328;DHT22;6733;51.044;3.746;2024-02-14T15:10:34;14.50;88.90
13328;DHT22;6733;51.044;3.746;2024-02-14T15:13:01;14.50;88.40
13328;DHT22;6733;51.044;3.746;2024-02-14T15:15:27;14.50;88.40
13328;DHT22;6733;51.044;3.746;2024-02-14T15:17:53;14.50;88.40
13328;DHT22;6733;51.044;3.746;2024-02-14T15:20:19;14.60;88.40
13328;DHT22;6733;51.044;3.746;2024-02-14T15:22:45;14.60;88.20
13328;DHT22;6733;51.044;3.746;2024-02-14T15:25:12;14.50;88.30
13328;DHT22;6733;51.044;3.746;2024-02-14T15:27:38;14.60;88.20
13328;DHT22;6733;51.044;3.746;2024-02-14T15:30:10;14.50;88.40
13328;DHT22;6733;51.044;3.746;2024-02-14T15:32:55;14.50;88.50
13328;DHT22;6733;51.044;3.746;2024-02-14T15:35:40;14.40;88.50
13328;DHT22;6733;51.044;3.746;2024-02-14T15:38:06;14.40;88.60
13328;DHT22;6733;51.044;3.746;2024-02-14T15:40:32;14.40;88.60
13328;DHT22;6733;51.044;3.746;2024-02-14T15:43:00;14.40;88.60
13328;DHT22;6733;51.044;3.746;2024-02-14T15:45:28;14.40;88.80
13328;DHT22;6733;51.044;3.746;2024-02-14T15:47:55;14.40;88.90
13328;DHT22;6733;51.044;3.746;2024-02-14T15:50:23;14.40;88.80
13328;DHT22;6733;51.044;3.746;2024-02-14T15:52:53;14.30;89.00